Airfield :
LOGIN :

Register | Disclaimer

   EN    FR    IT 

 










Legend :    VFR   Marginal VFR   IFR   Intensive IFR   Very Intensive IFR
Visi :
Ceiling :
>= 8 km
>= 3000ft
5 to 8 km
1000 to 3000 ft
1500m to 5 km
500 to 1000 ft
800 to 1500m
200 to 500 ft
< 800m
< 200 ft
Symbols :   Thunderstorms  Fog  Heavy snow  Heavy precipitations  Wind > 20 kt
SIGMETs :     Misc.  Thunderstorms  Icing  Turbulence  Mountain Waves  Volcanic Ashes







- Airport Elevation : 160 ft
- IATA code : LRT
- Download approach charts


LFRH - Lorient Lann Bihoue

CURRENT METAR :
  • 220730Z AUTO 07003KT 040V110 8000 NSC 13/13 Q1005 NOSIG

EXPIRED METARs :
  • 220700Z AUTO VRB02KT 3800 BR NSC 12/12 Q1006 BECMG 9999 NSW
  • 220630Z AUTO 06003KT 3000 BR NSC 11/11 Q1006 BECMG 15010KT 9999 NSW
  • 220600Z AUTO 06003KT 2600 BR NSC 10/10 Q1006 BECMG 15010KT 9999 NSW
  • 220530Z AUTO VRB02KT 2000 0750 R25/1900D R07/1400D BCFG NSC 10/10 Q1006 BECMG 9999 NSW
  • 220500Z AUTO 11003KT 1600 0900 R25/1400U R07/1200U BCFG FEW003 BKN240 11/10 Q1006 TEMPO 0500 BCFG BKN001

TAF TAF LFRH
Valid from the 22 at 06:00 until the 23 at 06:00 UTC


220500Z 2206/2306 VRB03KT 3000 BR SCT003
BECMG 2206/2208 15010KT CAVOK
TEMPO 2217/2220 -SHRA SCT045TCU
No reported NOTAMs for that airfield.



MET'MAP, your aeronautical weather chart ! - Copyright ORBIFLY December 2007 - Disclaimer

ORBIFLY MET'MAP TEAM :

Programming & Development : Alexandra Zaïnal
Concept & Development : Baudouin d'Aumeries
Co-Development & Prog : Marc-Olivier Méhu
Technical & hardware support : Manuel Goepfert

Contact : metmap@orbifly.com




SOURCES & CREDITS :

   NOAA